sensor_id;sensor_type;location;lat;lon;timestamp;pressure;altitude;pressure_sealevel;temperature
10598;BMP180;5346;48.766;8.674;2023-08-08T03:29:23;94189.00;;;10.80
10598;BMP180;5346;48.766;8.674;2023-08-08T03:50:05;94192.00;;;10.60
10598;BMP180;5346;48.766;8.674;2023-08-08T04:00:34;94199.00;;;10.30
10598;BMP180;5346;48.766;8.674;2023-08-08T04:10:34;94196.00;;;10.00
10598;BMP180;5346;48.766;8.674;2023-08-08T04:20:41;94207.00;;;10.50
10598;BMP180;5346;48.766;8.674;2023-08-08T04:23:52;94204.00;;;10.50
10598;BMP180;5346;48.766;8.674;2023-08-08T04:30:13;94195.00;;;10.10
10598;BMP180;5346;48.766;8.674;2023-08-08T04:32:54;94203.00;;;10.00
10598;BMP180;5346;48.766;8.674;2023-08-08T04:35:35;94197.00;;;10.00
10598;BMP180;5346;48.766;8.674;2023-08-08T04:38:10;94200.00;;;10.00
10598;BMP180;5346;48.766;8.674;2023-08-08T04:40:37;94197.00;;;9.90
10598;BMP180;5346;48.766;8.674;2023-08-08T04:43:13;94198.00;;;10.00
10598;BMP180;5346;48.766;8.674;2023-08-08T04:45:46;94187.00;;;10.00
10598;BMP180;5346;48.766;8.674;2023-08-08T04:48:20;94201.00;;;10.20
10598;BMP180;5346;48.766;8.674;2023-08-08T04:50:48;94194.00;;;10.30
10598;BMP180;5346;48.766;8.674;2023-08-08T04:53:22;94203.00;;;10.30
10598;BMP180;5346;48.766;8.674;2023-08-08T04:55:50;94201.00;;;10.40
10598;BMP180;5346;48.766;8.674;2023-08-08T04:58:24;94206.00;;;10.50
10598;BMP180;5346;48.766;8.674;2023-08-08T05:00:52;94202.00;;;10.60
10598;BMP180;5346;48.766;8.674;2023-08-08T05:03:27;94204.00;;;10.80
10598;BMP180;5346;48.766;8.674;2023-08-08T05:05:54;94198.00;;;10.80
10598;BMP180;5346;48.766;8.674;2023-08-08T05:08:28;94201.00;;;11.00
10598;BMP180;5346;48.766;8.674;2023-08-08T05:10:56;94202.00;;;11.10
10598;BMP180;5346;48.766;8.674;2023-08-08T05:13:30;94194.00;;;11.30
10598;BMP180;5346;48.766;8.674;2023-08-08T05:16:05;94191.00;;;11.40
10598;BMP180;5346;48.766;8.674;2023-08-08T05:18:34;94192.00;;;11.40
10598;BMP180;5346;48.766;8.674;2023-08-08T05:21:02;94200.00;;;11.50
10598;BMP180;5346;48.766;8.674;2023-08-08T05:23:35;94201.00;;;11.60
10598;BMP180;5346;48.766;8.674;2023-08-08T05:26:03;94194.00;;;11.90
10598;BMP180;5346;48.766;8.674;2023-08-08T05:28:37;94194.00;;;12.10
10598;BMP180;5346;48.766;8.674;2023-08-08T05:31:05;94186.00;;;12.10
10598;BMP180;5346;48.766;8.674;2023-08-08T05:33:47;94190.00;;;12.30
10598;BMP180;5346;48.766;8.674;2023-08-08T05:36:28;94192.00;;;12.40
10598;BMP180;5346;48.766;8.674;2023-08-08T05:39:03;94186.00;;;12.50
10598;BMP180;5346;48.766;8.674;2023-08-08T05:41:37;94183.00;;;12.60
10598;BMP180;5346;48.766;8.674;2023-08-08T05:44:04;94177.00;;;12.80
10598;BMP180;5346;48.766;8.674;2023-08-08T05:46:38;94180.00;;;13.00
10598;BMP180;5346;48.766;8.674;2023-08-08T05:49:06;94173.00;;;12.90
10598;BMP180;5346;48.766;8.674;2023-08-08T05:51:41;94166.00;;;13.10
10598;BMP180;5346;48.766;8.674;2023-08-08T05:54:09;94159.00;;;13.20
10598;BMP180;5346;48.766;8.674;2023-08-08T05:56:46;94168.00;;;13.20
10598;BMP180;5346;48.766;8.674;2023-08-08T05:59:14;94170.00;;;13.50
10598;BMP180;5346;48.766;8.674;2023-08-08T06:01:48;94180.00;;;13.60
10598;BMP180;5346;48.766;8.674;2023-08-08T06:04:25;94178.00;;;13.60
10598;BMP180;5346;48.766;8.674;2023-08-08T06:07:00;94188.00;;;13.80
10598;BMP180;5346;48.766;8.674;2023-08-08T06:09:43;94187.00;;;13.90
10598;BMP180;5346;48.766;8.674;2023-08-08T06:12:22;94179.00;;;14.10
10598;BMP180;5346;48.766;8.674;2023-08-08T06:14:57;94184.00;;;14.20
10598;BMP180;5346;48.766;8.674;2023-08-08T06:17:32;94193.00;;;14.30
10598;BMP180;5346;48.766;8.674;2023-08-08T06:20:06;94188.00;;;14.30
10598;BMP180;5346;48.766;8.674;2023-08-08T06:22:43;94181.00;;;14.50
10598;BMP180;5346;48.766;8.674;2023-08-08T06:25:11;94188.00;;;14.50
10598;BMP180;5346;48.766;8.674;2023-08-08T06:27:48;94186.00;;;14.70
10598;BMP180;5346;48.766;8.674;2023-08-08T06:30:16;94191.00;;;14.90
10598;BMP180;5346;48.766;8.674;2023-08-08T06:33:04;94184.00;;;14.80
10598;BMP180;5346;48.766;8.674;2023-08-08T06:35:45;94182.00;;;14.80
10598;BMP180;5346;48.766;8.674;2023-08-08T06:38:19;94190.00;;;14.90
10598;BMP180;5346;48.766;8.674;2023-08-08T06:40:53;94183.00;;;15.10
10598;BMP180;5346;48.766;8.674;2023-08-08T06:43:23;94186.00;;;15.20
10598;BMP180;5346;48.766;8.674;2023-08-08T06:46:13;94185.00;;;15.40
10598;BMP180;5346;48.766;8.674;2023-08-08T06:48:47;94183.00;;;15.40
10598;BMP180;5346;48.766;8.674;2023-08-08T06:51:30;94184.00;;;15.60
10598;BMP180;5346;48.766;8.674;2023-08-08T06:53:58;94188.00;;;15.70
10598;BMP180;5346;48.766;8.674;2023-08-08T06:56:32;94194.00;;;16.00
10598;BMP180;5346;48.766;8.674;2023-08-08T06:59:08;94206.00;;;16.00
10598;BMP180;5346;48.766;8.674;2023-08-08T07:01:47;94188.00;;;15.60
10598;BMP180;5346;48.766;8.674;2023-08-08T07:04:22;94190.00;;;15.50
10598;BMP180;5346;48.766;8.674;2023-08-08T07:06:53;94190.00;;;15.60
10598;BMP180;5346;48.766;8.674;2023-08-08T07:09:27;94194.00;;;15.80
10598;BMP180;5346;48.766;8.674;2023-08-08T07:12:00;94189.00;;;15.80
10598;BMP180;5346;48.766;8.674;2023-08-08T07:14:35;94185.00;;;16.10
10598;BMP180;5346;48.766;8.674;2023-08-08T07:17:09;94200.00;;;16.10
10598;BMP180;5346;48.766;8.674;2023-08-08T07:19:37;94191.00;;;15.90
10598;BMP180;5346;48.766;8.674;2023-08-08T07:22:12;94187.00;;;15.60
10598;BMP180;5346;48.766;8.674;2023-08-08T07:24:45;94187.00;;;15.80
10598;BMP180;5346;48.766;8.674;2023-08-08T07:27:13;94186.00;;;16.30
10598;BMP180;5346;48.766;8.674;2023-08-08T07:29:48;94193.00;;;16.30
10598;BMP180;5346;48.766;8.674;2023-08-08T07:32:15;94189.00;;;15.90
10598;BMP180;5346;48.766;8.674;2023-08-08T07:34:56;94189.00;;;16.00
10598;BMP180;5346;48.766;8.674;2023-08-08T07:37:24;94183.00;;;16.30
10598;BMP180;5346;48.766;8.674;2023-08-08T07:39:57;94176.00;;;16.40
10598;BMP180;5346;48.766;8.674;2023-08-08T07:42:25;94177.00;;;16.40
10598;BMP180;5346;48.766;8.674;2023-08-08T07:44:59;94180.00;;;16.50
10598;BMP180;5346;48.766;8.674;2023-08-08T07:47:34;94180.00;;;16.80
10598;BMP180;5346;48.766;8.674;2023-08-08T07:50:09;94171.00;;;17.20
10598;BMP180;5346;48.766;8.674;2023-08-08T07:52:37;94160.00;;;17.20
10598;BMP180;5346;48.766;8.674;2023-08-08T07:55:12;94165.00;;;17.40
10598;BMP180;5346;48.766;8.674;2023-08-08T07:57:40;94168.00;;;17.30
10598;BMP180;5346;48.766;8.674;2023-08-08T08:00:14;94181.00;;;17.40
10598;BMP180;5346;48.766;8.674;2023-08-08T08:02:46;94169.00;;;17.20
10598;BMP180;5346;48.766;8.674;2023-08-08T08:05:21;94161.00;;;17.60
10598;BMP180;5346;48.766;8.674;2023-08-08T08:07:49;94162.00;;;17.90
10598;BMP180;5346;48.766;8.674;2023-08-08T08:10:24;94168.00;;;17.80
10598;BMP180;5346;48.766;8.674;2023-08-08T08:12:52;94173.00;;;17.60
10598;BMP180;5346;48.766;8.674;2023-08-08T08:15:32;94165.00;;;17.70
10598;BMP180;5346;48.766;8.674;2023-08-08T08:17:59;94173.00;;;18.00
10598;BMP180;5346;48.766;8.674;2023-08-08T08:20:34;94166.00;;;18.00
10598;BMP180;5346;48.766;8.674;2023-08-08T08:23:01;94169.00;;;17.80
10598;BMP180;5346;48.766;8.674;2023-08-08T08:25:36;94187.00;;;17.70
10598;BMP180;5346;48.766;8.674;2023-08-08T08:28:04;94170.00;;;17.60
10598;BMP180;5346;48.766;8.674;2023-08-08T08:30:38;94165.00;;;17.60
10598;BMP180;5346;48.766;8.674;2023-08-08T08:33:06;94160.00;;;18.10
10598;BMP180;5346;48.766;8.674;2023-08-08T08:35:53;94155.00;;;18.10
10598;BMP180;5346;48.766;8.674;2023-08-08T08:38:23;94163.00;;;18.10
10598;BMP180;5346;48.766;8.674;2023-08-08T08:40:57;94165.00;;;18.40
10598;BMP180;5346;48.766;8.674;2023-08-08T08:43:32;94171.00;;;18.40
10598;BMP180;5346;48.766;8.674;2023-08-08T08:46:06;94150.00;;;18.40
10598;BMP180;5346;48.766;8.674;2023-08-08T08:48:36;94161.00;;;18.50
10598;BMP180;5346;48.766;8.674;2023-08-08T08:51:11;94143.00;;;18.10
10598;BMP180;5346;48.766;8.674;2023-08-08T08:53:38;94155.00;;;18.20
10598;BMP180;5346;48.766;8.674;2023-08-08T08:56:06;94154.00;;;18.30
10598;BMP180;5346;48.766;8.674;2023-08-08T08:58:42;94160.00;;;18.40
10598;BMP180;5346;48.766;8.674;2023-08-08T09:01:10;94147.00;;;18.60
10598;BMP180;5346;48.766;8.674;2023-08-08T09:03:45;94158.00;;;18.30
10598;BMP180;5346;48.766;8.674;2023-08-08T09:06:22;94147.00;;;18.20
10598;BMP180;5346;48.766;8.674;2023-08-08T09:08:57;94149.00;;;18.60
10598;BMP180;5346;48.766;8.674;2023-08-08T09:11:50;94170.00;;;18.80
10598;BMP180;5346;48.766;8.674;2023-08-08T09:14:26;94169.00;;;18.30
10598;BMP180;5346;48.766;8.674;2023-08-08T09:16:54;94154.00;;;18.10
10598;BMP180;5346;48.766;8.674;2023-08-08T09:19:23;94166.00;;;18.30
10598;BMP180;5346;48.766;8.674;2023-08-08T09:22:06;94171.00;;;17.80
10598;BMP180;5346;48.766;8.674;2023-08-08T09:24:42;94153.00;;;17.90
10598;BMP180;5346;48.766;8.674;2023-08-08T09:27:17;94155.00;;;17.70
10598;BMP180;5346;48.766;8.674;2023-08-08T09:29:45;94146.00;;;18.00
10598;BMP180;5346;48.766;8.674;2023-08-08T09:32:18;94146.00;;;17.90
10598;BMP180;5346;48.766;8.674;2023-08-08T09:34:46;94147.00;;;18.40
10598;BMP180;5346;48.766;8.674;2023-08-08T09:37:34;94129.00;;;19.00
10598;BMP180;5346;48.766;8.674;2023-08-08T09:40:03;94126.00;;;19.20
10598;BMP180;5346;48.766;8.674;2023-08-08T09:42:40;94137.00;;;18.00
10598;BMP180;5346;48.766;8.674;2023-08-08T09:45:09;94130.00;;;18.00
10598;BMP180;5346;48.766;8.674;2023-08-08T09:47:44;94136.00;;;18.50
10598;BMP180;5346;48.766;8.674;2023-08-08T09:50:18;94141.00;;;19.10
10598;BMP180;5346;48.766;8.674;2023-08-08T09:52:53;94141.00;;;19.20
10598;BMP180;5346;48.766;8.674;2023-08-08T09:55:29;94162.00;;;18.60
10598;BMP180;5346;48.766;8.674;2023-08-08T09:58:04;94149.00;;;17.90
10598;BMP180;5346;48.766;8.674;2023-08-08T10:00:33;94146.00;;;17.80
10598;BMP180;5346;48.766;8.674;2023-08-08T10:03:08;94130.00;;;17.90
10598;BMP180;5346;48.766;8.674;2023-08-08T10:05:44;94143.00;;;18.40
10598;BMP180;5346;48.766;8.674;2023-08-08T10:08:19;94144.00;;;18.70
10598;BMP180;5346;48.766;8.674;2023-08-08T10:10:48;94136.00;;;19.10
10598;BMP180;5346;48.766;8.674;2023-08-08T10:13:26;94122.00;;;19.10
10598;BMP180;5346;48.766;8.674;2023-08-08T10:16:07;94128.00;;;18.90
10598;BMP180;5346;48.766;8.674;2023-08-08T10:18:42;94141.00;;;19.00
10598;BMP180;5346;48.766;8.674;2023-08-08T10:21:18;94130.00;;;19.20
10598;BMP180;5346;48.766;8.674;2023-08-08T10:24:07;94136.00;;;18.80
10598;BMP180;5346;48.766;8.674;2023-08-08T10:26:54;94144.00;;;18.70
10598;BMP180;5346;48.766;8.674;2023-08-08T10:29:32;94131.00;;;19.00
10598;BMP180;5346;48.766;8.674;2023-08-08T10:32:07;94136.00;;;18.80
10598;BMP180;5346;48.766;8.674;2023-08-08T10:34:48;94134.00;;;19.20
10598;BMP180;5346;48.766;8.674;2023-08-08T10:37:24;94120.00;;;19.90
10598;BMP180;5346;48.766;8.674;2023-08-08T10:39:59;94127.00;;;20.20
10598;BMP180;5346;48.766;8.674;2023-08-08T10:42:28;94131.00;;;19.90
10598;BMP180;5346;48.766;8.674;2023-08-08T10:45:05;94134.00;;;19.50
10598;BMP180;5346;48.766;8.674;2023-08-08T10:47:37;94155.00;;;19.60
10598;BMP180;5346;48.766;8.674;2023-08-08T10:50:13;94112.00;;;19.90
10598;BMP180;5346;48.766;8.674;2023-08-08T10:55:31;94119.00;;;20.10
10598;BMP180;5346;48.766;8.674;2023-08-08T10:58:13;94126.00;;;19.70
10598;BMP180;5346;48.766;8.674;2023-08-08T11:00:47;94130.00;;;20.40
10598;BMP180;5346;48.766;8.674;2023-08-08T11:03:23;94120.00;;;20.20
10598;BMP180;5346;48.766;8.674;2023-08-08T11:05:54;94120.00;;;20.60
10598;BMP180;5346;48.766;8.674;2023-08-08T11:08:24;94125.00;;;20.80
10598;BMP180;5346;48.766;8.674;2023-08-08T11:10:58;94125.00;;;21.40
10598;BMP180;5346;48.766;8.674;2023-08-08T11:13:33;94128.00;;;20.50
10598;BMP180;5346;48.766;8.674;2023-08-08T11:16:16;94119.00;;;20.60
10598;BMP180;5346;48.766;8.674;2023-08-08T11:18:44;94118.00;;;19.90
10598;BMP180;5346;48.766;8.674;2023-08-08T11:21:13;94120.00;;;20.90
10598;BMP180;5346;48.766;8.674;2023-08-08T11:23:48;94120.00;;;21.50
10598;BMP180;5346;48.766;8.674;2023-08-08T11:26:18;94137.00;;;21.60
10598;BMP180;5346;48.766;8.674;2023-08-08T11:28:53;94123.00;;;20.70
10598;BMP180;5346;48.766;8.674;2023-08-08T11:31:21;94156.00;;;20.10
10598;BMP180;5346;48.766;8.674;2023-08-08T11:34:03;94167.00;;;19.30
10598;BMP180;5346;48.766;8.674;2023-08-08T11:36:36;94147.00;;;18.40
10598;BMP180;5346;48.766;8.674;2023-08-08T11:39:11;94171.00;;;18.50
10598;BMP180;5346;48.766;8.674;2023-08-08T11:41:39;94172.00;;;19.00
10598;BMP180;5346;48.766;8.674;2023-08-08T11:44:15;94132.00;;;19.90
10598;BMP180;5346;48.766;8.674;2023-08-08T11:46:49;94119.00;;;20.60
10598;BMP180;5346;48.766;8.674;2023-08-08T11:49:24;94113.00;;;20.40
10598;BMP180;5346;48.766;8.674;2023-08-08T11:51:54;94139.00;;;20.20
10598;BMP180;5346;48.766;8.674;2023-08-08T11:54:33;94112.00;;;20.10
10598;BMP180;5346;48.766;8.674;2023-08-08T11:57:02;94116.00;;;20.90
10598;BMP180;5346;48.766;8.674;2023-08-08T11:59:36;94094.00;;;21.40
10598;BMP180;5346;48.766;8.674;2023-08-08T12:02:04;94118.00;;;22.10
10598;BMP180;5346;48.766;8.674;2023-08-08T12:04:39;94133.00;;;20.80
10598;BMP180;5346;48.766;8.674;2023-08-08T12:07:10;94132.00;;;20.30
10598;BMP180;5346;48.766;8.674;2023-08-08T12:09:50;94125.00;;;20.70
10598;BMP180;5346;48.766;8.674;2023-08-08T12:12:27;94129.00;;;20.10
10598;BMP180;5346;48.766;8.674;2023-08-08T12:15:07;94147.00;;;19.30
10598;BMP180;5346;48.766;8.674;2023-08-08T12:17:43;94147.00;;;19.20
10598;BMP180;5346;48.766;8.674;2023-08-08T12:20:17;94125.00;;;19.60
10598;BMP180;5346;48.766;8.674;2023-08-08T12:22:52;94139.00;;;19.80
10598;BMP180;5346;48.766;8.674;2023-08-08T12:25:27;94147.00;;;19.40
10598;BMP180;5346;48.766;8.674;2023-08-08T12:28:03;94162.00;;;18.80
10598;BMP180;5346;48.766;8.674;2023-08-08T12:30:40;94166.00;;;18.30
10598;BMP180;5346;48.766;8.674;2023-08-08T12:33:09;94163.00;;;18.00
10598;BMP180;5346;48.766;8.674;2023-08-08T12:35:43;94138.00;;;17.90
10598;BMP180;5346;48.766;8.674;2023-08-08T12:38:23;94147.00;;;19.00
10598;BMP180;5346;48.766;8.674;2023-08-08T12:41:01;94122.00;;;20.30
10598;BMP180;5346;48.766;8.674;2023-08-08T12:43:29;94114.00;;;20.80
10598;BMP180;5346;48.766;8.674;2023-08-08T12:46:07;94112.00;;;21.80
10598;BMP180;5346;48.766;8.674;2023-08-08T12:48:37;94105.00;;;22.10
10598;BMP180;5346;48.766;8.674;2023-08-08T12:51:11;94102.00;;;21.90
10598;BMP180;5346;48.766;8.674;2023-08-08T12:53:49;94103.00;;;21.90
10598;BMP180;5346;48.766;8.674;2023-08-08T12:56:17;94102.00;;;22.30
10598;BMP180;5346;48.766;8.674;2023-08-08T12:58:51;94089.00;;;21.80
10598;BMP180;5346;48.766;8.674;2023-08-08T13:01:19;94126.00;;;23.50
10598;BMP180;5346;48.766;8.674;2023-08-08T13:03:57;94083.00;;;23.00
10598;BMP180;5346;48.766;8.674;2023-08-08T13:06:49;94087.00;;;23.50
10598;BMP180;5346;48.766;8.674;2023-08-08T13:09:23;94080.00;;;22.80
10598;BMP180;5346;48.766;8.674;2023-08-08T13:11:51;94098.00;;;22.40
10598;BMP180;5346;48.766;8.674;2023-08-08T13:14:19;94070.00;;;22.50
10598;BMP180;5346;48.766;8.674;2023-08-08T13:16:53;94063.00;;;22.80
10598;BMP180;5346;48.766;8.674;2023-08-08T13:19:27;94077.00;;;23.40
10598;BMP180;5346;48.766;8.674;2023-08-08T13:22:01;94076.00;;;23.90
10598;BMP180;5346;48.766;8.674;2023-08-08T13:24:30;94082.00;;;23.50
10598;BMP180;5346;48.766;8.674;2023-08-08T13:27:04;94084.00;;;23.40
10598;BMP180;5346;48.766;8.674;2023-08-08T13:29:32;94065.00;;;24.00
10598;BMP180;5346;48.766;8.674;2023-08-08T13:32:06;94073.00;;;24.10
10598;BMP180;5346;48.766;8.674;2023-08-08T13:34:40;94075.00;;;23.10
10598;BMP180;5346;48.766;8.674;2023-08-08T13:37:28;94102.00;;;23.30
10598;BMP180;5346;48.766;8.674;2023-08-08T13:40:02;94083.00;;;23.30
10598;BMP180;5346;48.766;8.674;2023-08-08T13:42:36;94112.00;;;23.00
10598;BMP180;5346;48.766;8.674;2023-08-08T13:45:05;94100.00;;;22.00
10598;BMP180;5346;48.766;8.674;2023-08-08T13:47:39;94071.00;;;23.00
10598;BMP180;5346;48.766;8.674;2023-08-08T13:50:14;94082.00;;;22.40
10598;BMP180;5346;48.766;8.674;2023-08-08T13:52:48;94072.00;;;22.90
10598;BMP180;5346;48.766;8.674;2023-08-08T13:55:16;94096.00;;;23.00
10598;BMP180;5346;48.766;8.674;2023-08-08T13:57:44;94122.00;;;20.90
10598;BMP180;5346;48.766;8.674;2023-08-08T14:00:18;94135.00;;;19.80
10598;BMP180;5346;48.766;8.674;2023-08-08T14:02:47;94140.00;;;19.50
10598;BMP180;5346;48.766;8.674;2023-08-08T14:05:24;94131.00;;;19.20
10598;BMP180;5346;48.766;8.674;2023-08-08T14:07:52;94129.00;;;18.90
10598;BMP180;5346;48.766;8.674;2023-08-08T14:10:25;94143.00;;;18.10
10598;BMP180;5346;48.766;8.674;2023-08-08T14:12:53;94144.00;;;18.00
10598;BMP180;5346;48.766;8.674;2023-08-08T14:15:27;94151.00;;;17.70
10598;BMP180;5346;48.766;8.674;2023-08-08T14:18:02;94147.00;;;17.40
10598;BMP180;5346;48.766;8.674;2023-08-08T14:20:37;94154.00;;;17.30
10598;BMP180;5346;48.766;8.674;2023-08-08T14:23:05;94149.00;;;17.20
10598;BMP180;5346;48.766;8.674;2023-08-08T14:25:41;94153.00;;;17.50
10598;BMP180;5346;48.766;8.674;2023-08-08T14:28:08;94147.00;;;17.90
10598;BMP180;5346;48.766;8.674;2023-08-08T14:30:42;94123.00;;;19.10
10598;BMP180;5346;48.766;8.674;2023-08-08T14:33:10;94116.00;;;20.60
10598;BMP180;5346;48.766;8.674;2023-08-08T14:35:44;94110.00;;;21.10
10598;BMP180;5346;48.766;8.674;2023-08-08T14:38:24;94126.00;;;20.90
10598;BMP180;5346;48.766;8.674;2023-08-08T14:40:58;94122.00;;;20.50
10598;BMP180;5346;48.766;8.674;2023-08-08T14:43:33;94127.00;;;20.80
10598;BMP180;5346;48.766;8.674;2023-08-08T14:46:07;94130.00;;;20.90
10598;BMP180;5346;48.766;8.674;2023-08-08T14:48:35;94123.00;;;20.50
10598;BMP180;5346;48.766;8.674;2023-08-08T14:51:10;94137.00;;;19.50
10598;BMP180;5346;48.766;8.674;2023-08-08T14:53:38;94144.00;;;19.20
10598;BMP180;5346;48.766;8.674;2023-08-08T14:56:13;94154.00;;;18.60
10598;BMP180;5346;48.766;8.674;2023-08-08T14:58:41;94157.00;;;18.30
10598;BMP180;5346;48.766;8.674;2023-08-08T15:01:22;94159.00;;;18.00
10598;BMP180;5346;48.766;8.674;2023-08-08T15:03:50;94150.00;;;17.60
10598;BMP180;5346;48.766;8.674;2023-08-08T15:06:25;94135.00;;;17.80
10598;BMP180;5346;48.766;8.674;2023-08-08T15:08:53;94138.00;;;18.30
10598;BMP180;5346;48.766;8.674;2023-08-08T15:11:27;94136.00;;;18.60
10598;BMP180;5346;48.766;8.674;2023-08-08T15:14:01;94137.00;;;18.30
10598;BMP180;5346;48.766;8.674;2023-08-08T15:16:36;94142.00;;;18.40
10598;BMP180;5346;48.766;8.674;2023-08-08T15:19:10;94137.00;;;19.30
10598;BMP180;5346;48.766;8.674;2023-08-08T15:21:38;94119.00;;;19.20
10598;BMP180;5346;48.766;8.674;2023-08-08T15:24:06;94127.00;;;20.40
10598;BMP180;5346;48.766;8.674;2023-08-08T15:26:40;94129.00;;;20.70
10598;BMP180;5346;48.766;8.674;2023-08-08T15:29:08;94130.00;;;20.20
10598;BMP180;5346;48.766;8.674;2023-08-08T15:31:42;94135.00;;;21.10
10598;BMP180;5346;48.766;8.674;2023-08-08T15:34:17;94124.00;;;20.60
10598;BMP180;5346;48.766;8.674;2023-08-08T15:36:50;94120.00;;;21.40
10598;BMP180;5346;48.766;8.674;2023-08-08T15:39:25;94137.00;;;20.30
10598;BMP180;5346;48.766;8.674;2023-08-08T15:41:53;94117.00;;;20.00
10598;BMP180;5346;48.766;8.674;2023-08-08T15:44:26;94114.00;;;19.40
10598;BMP180;5346;48.766;8.674;2023-08-08T15:47:00;94111.00;;;20.50
10598;BMP180;5346;48.766;8.674;2023-08-08T15:49:35;94114.00;;;21.00
10598;BMP180;5346;48.766;8.674;2023-08-08T15:52:02;94094.00;;;21.30
10598;BMP180;5346;48.766;8.674;2023-08-08T15:54:30;94117.00;;;21.50
10598;BMP180;5346;48.766;8.674;2023-08-08T15:57:04;94134.00;;;20.50
10598;BMP180;5346;48.766;8.674;2023-08-08T15:59:40;94121.00;;;20.50
10598;BMP180;5346;48.766;8.674;2023-08-08T16:02:10;94105.00;;;21.30
10598;BMP180;5346;48.766;8.674;2023-08-08T16:04:45;94143.00;;;20.40
10598;BMP180;5346;48.766;8.674;2023-08-08T16:07:13;94127.00;;;19.30
10598;BMP180;5346;48.766;8.674;2023-08-08T16:09:51;94141.00;;;18.40
10598;BMP180;5346;48.766;8.674;2023-08-08T16:12:19;94133.00;;;18.30
10598;BMP180;5346;48.766;8.674;2023-08-08T16:14:53;94140.00;;;18.10
10598;BMP180;5346;48.766;8.674;2023-08-08T16:17:21;94123.00;;;18.60
10598;BMP180;5346;48.766;8.674;2023-08-08T16:19:56;94111.00;;;19.40
10598;BMP180;5346;48.766;8.674;2023-08-08T16:22:23;94133.00;;;20.10
10598;BMP180;5346;48.766;8.674;2023-08-08T16:24:58;94103.00;;;20.30
10598;BMP180;5346;48.766;8.674;2023-08-08T16:31:10;94113.00;;;19.00
10598;BMP180;5346;48.766;8.674;2023-08-08T16:33:44;94110.00;;;19.60
10598;BMP180;5346;48.766;8.674;2023-08-08T16:36:25;94119.00;;;20.00
10598;BMP180;5346;48.766;8.674;2023-08-08T16:38:52;94112.00;;;19.60
10598;BMP180;5346;48.766;8.674;2023-08-08T16:41:44;94118.00;;;19.60
10598;BMP180;5346;48.766;8.674;2023-08-08T16:44:18;94135.00;;;19.80
10598;BMP180;5346;48.766;8.674;2023-08-08T16:46:47;94142.00;;;19.00
10598;BMP180;5346;48.766;8.674;2023-08-08T16:49:28;94144.00;;;18.60
10598;BMP180;5346;48.766;8.674;2023-08-08T16:52:02;94154.00;;;18.40
10598;BMP180;5346;48.766;8.674;2023-08-08T16:54:32;94152.00;;;18.10
10598;BMP180;5346;48.766;8.674;2023-08-08T16:57:07;94162.00;;;17.40
10598;BMP180;5346;48.766;8.674;2023-08-08T16:59:35;94154.00;;;17.70
10598;BMP180;5346;48.766;8.674;2023-08-08T17:02:09;94152.00;;;18.00
10598;BMP180;5346;48.766;8.674;2023-08-08T17:04:43;94146.00;;;18.10
10598;BMP180;5346;48.766;8.674;2023-08-08T17:07:18;94144.00;;;18.30
10598;BMP180;5346;48.766;8.674;2023-08-08T17:09:46;94153.00;;;18.30
10598;BMP180;5346;48.766;8.674;2023-08-08T17:12:20;94158.00;;;18.20
10598;BMP180;5346;48.766;8.674;2023-08-08T17:14:55;94163.00;;;17.90
10598;BMP180;5346;48.766;8.674;2023-08-08T17:17:29;94149.00;;;17.80
10598;BMP180;5346;48.766;8.674;2023-08-08T17:19:57;94161.00;;;17.60
10598;BMP180;5346;48.766;8.674;2023-08-08T17:22:32;94160.00;;;17.40
10598;BMP180;5346;48.766;8.674;2023-08-08T17:25:07;94164.00;;;17.40
10598;BMP180;5346;48.766;8.674;2023-08-08T17:27:42;94164.00;;;17.20
10598;BMP180;5346;48.766;8.674;2023-08-08T17:30:10;94169.00;;;17.30
10598;BMP180;5346;48.766;8.674;2023-08-08T17:32:44;94168.00;;;17.20
10598;BMP180;5346;48.766;8.674;2023-08-08T17:35:12;94164.00;;;17.00
10598;BMP180;5346;48.766;8.674;2023-08-08T17:37:46;94165.00;;;16.90
10598;BMP180;5346;48.766;8.674;2023-08-08T17:40:16;94162.00;;;17.00
10598;BMP180;5346;48.766;8.674;2023-08-08T17:42:50;94168.00;;;16.80
10598;BMP180;5346;48.766;8.674;2023-08-08T17:45:24;94169.00;;;16.70
10598;BMP180;5346;48.766;8.674;2023-08-08T17:47:58;94177.00;;;16.80
10598;BMP180;5346;48.766;8.674;2023-08-08T17:50:26;94176.00;;;16.70
10598;BMP180;5346;48.766;8.674;2023-08-08T17:53:02;94168.00;;;16.60
10598;BMP180;5346;48.766;8.674;2023-08-08T17:55:37;94171.00;;;16.70
10598;BMP180;5346;48.766;8.674;2023-08-08T17:58:12;94164.00;;;16.70
10598;BMP180;5346;48.766;8.674;2023-08-08T18:00:40;94163.00;;;16.80
10598;BMP180;5346;48.766;8.674;2023-08-08T18:03:14;94155.00;;;16.80
10598;BMP180;5346;48.766;8.674;2023-08-08T18:05:42;94161.00;;;16.80
10598;BMP180;5346;48.766;8.674;2023-08-08T18:08:10;94155.00;;;16.70
10598;BMP180;5346;48.766;8.674;2023-08-08T18:10:44;94160.00;;;16.70
10598;BMP180;5346;48.766;8.674;2023-08-08T18:13:13;94149.00;;;16.70
10598;BMP180;5346;48.766;8.674;2023-08-08T18:15:46;94148.00;;;16.60
10598;BMP180;5346;48.766;8.674;2023-08-08T18:18:22;94144.00;;;16.50
10598;BMP180;5346;48.766;8.674;2023-08-08T18:20:54;94152.00;;;16.50
10598;BMP180;5346;48.766;8.674;2023-08-08T18:23:27;94144.00;;;16.50
10598;BMP180;5346;48.766;8.674;2023-08-08T18:25:55;94147.00;;;16.50
10598;BMP180;5346;48.766;8.674;2023-08-08T18:28:32;94142.00;;;16.30
10598;BMP180;5346;48.766;8.674;2023-08-08T18:31:02;94142.00;;;16.30
10598;BMP180;5346;48.766;8.674;2023-08-08T18:33:37;94146.00;;;16.20
10598;BMP180;5346;48.766;8.674;2023-08-08T18:36:11;94150.00;;;16.20
10598;BMP180;5346;48.766;8.674;2023-08-08T18:38:52;94160.00;;;16.10
10598;BMP180;5346;48.766;8.674;2023-08-08T18:41:27;94143.00;;;16.00
10598;BMP180;5346;48.766;8.674;2023-08-08T18:43:55;94150.00;;;16.00
10598;BMP180;5346;48.766;8.674;2023-08-08T18:46:29;94150.00;;;15.90
10598;BMP180;5346;48.766;8.674;2023-08-08T18:49:04;94149.00;;;15.90
10598;BMP180;5346;48.766;8.674;2023-08-08T18:51:38;94150.00;;;15.80
10598;BMP180;5346;48.766;8.674;2023-08-08T18:54:12;94136.00;;;15.80
10598;BMP180;5346;48.766;8.674;2023-08-08T18:56:47;94127.00;;;15.70
10598;BMP180;5346;48.766;8.674;2023-08-08T18:59:22;94141.00;;;15.70
10598;BMP180;5346;48.766;8.674;2023-08-08T19:01:56;94142.00;;;15.70
10598;BMP180;5346;48.766;8.674;2023-08-08T19:04:24;94149.00;;;15.90
10598;BMP180;5346;48.766;8.674;2023-08-08T19:06:58;94155.00;;;15.80
10598;BMP180;5346;48.766;8.674;2023-08-08T19:09:33;94153.00;;;15.80
10598;BMP180;5346;48.766;8.674;2023-08-08T19:12:08;94151.00;;;15.70
10598;BMP180;5346;48.766;8.674;2023-08-08T19:14:42;94157.00;;;15.70
10598;BMP180;5346;48.766;8.674;2023-08-08T19:17:10;94159.00;;;15.70